createdAt,value
2022-07-31T00:01:07.666Z,100.00
2022-07-31T00:03:42.277Z,100.00
2022-07-31T00:06:12.626Z,100.00
2022-07-31T00:08:43.783Z,100.00
2022-07-31T00:11:15.315Z,100.00
2022-07-31T00:13:56.840Z,100.00
2022-07-31T00:16:27.406Z,100.00
2022-07-31T00:19:07.821Z,100.00
2022-07-31T00:21:42.046Z,100.00
2022-07-31T00:24:19.720Z,100.00
2022-07-31T00:27:00.113Z,100.00
2022-07-31T00:29:32.856Z,100.00
2022-07-31T00:32:07.075Z,100.00
2022-07-31T00:34:43.224Z,100.00
2022-07-31T00:37:15.778Z,100.00
2022-07-31T00:39:47.629Z,100.00
2022-07-31T00:42:29.847Z,100.00
2022-07-31T00:45:10.513Z,100.00
2022-07-31T00:47:55.800Z,100.00
2022-07-31T00:50:30.893Z,100.00
2022-07-31T00:53:05.935Z,100.00
2022-07-31T00:55:51.212Z,100.00
2022-07-31T00:58:22.124Z,100.00
2022-07-31T01:01:05.554Z,100.00
2022-07-31T01:03:37.868Z,100.00
2022-07-31T01:06:22.633Z,100.00
2022-07-31T01:08:53.716Z,100.00
2022-07-31T01:11:59.552Z,100.00
2022-07-31T01:14:42.151Z,100.00
2022-07-31T01:17:22.705Z,100.00
2022-07-31T01:19:53.610Z,100.00
2022-07-31T01:23:20.870Z,100.00
2022-07-31T01:27:02.839Z,100.00
2022-07-31T01:30:00.243Z,100.00
2022-07-31T01:32:52.488Z,100.00
2022-07-31T01:35:31.837Z,100.00
2022-07-31T01:38:23.705Z,100.00
2022-07-31T01:41:01.870Z,100.00
2022-07-31T01:43:42.203Z,100.00
2022-07-31T01:46:16.381Z,100.00
2022-07-31T01:48:56.193Z,100.00
2022-07-31T01:51:44.438Z,100.00
2022-07-31T01:54:17.655Z,100.00
2022-07-31T01:56:55.504Z,100.00
2022-07-31T01:59:26.792Z,100.00
2022-07-31T02:02:33.977Z,100.00
2022-07-31T02:05:18.956Z,100.00
2022-07-31T02:07:55.039Z,100.00
2022-07-31T02:10:34.534Z,100.00
2022-07-31T02:13:16.221Z,100.00
2022-07-31T02:16:02.568Z,100.00
2022-07-31T02:18:42.691Z,100.00
2022-07-31T02:21:27.242Z,100.00
2022-07-31T02:23:59.725Z,100.00
2022-07-31T02:26:42.444Z,100.00
2022-07-31T02:29:26.917Z,100.00
2022-07-31T02:32:03.451Z,100.00
2022-07-31T02:34:37.056Z,100.00
2022-07-31T02:37:12.738Z,100.00
2022-07-31T02:39:43.908Z,100.00
2022-07-31T02:42:16.479Z,100.00
2022-07-31T02:44:47.460Z,100.00
2022-07-31T02:47:24.442Z,100.00
2022-07-31T02:49:55.098Z,100.00
2022-07-31T02:52:29.229Z,100.00
2022-07-31T02:55:15.059Z,100.00
2022-07-31T02:57:51.271Z,100.00
2022-07-31T03:00:29.549Z,100.00
2022-07-31T03:03:04.999Z,100.00
2022-07-31T03:05:49.165Z,100.00
2022-07-31T03:08:35.294Z,100.00
2022-07-31T03:11:13.759Z,100.00
2022-07-31T03:13:54.130Z,100.00
2022-07-31T03:16:23.300Z,100.00
2022-07-31T03:18:58.942Z,100.00
2022-07-31T03:21:30.193Z,100.00
2022-07-31T03:24:03.868Z,100.00
2022-07-31T03:26:35.685Z,100.00
2022-07-31T03:29:03.972Z,100.00
2022-07-31T03:31:49.430Z,100.00
2022-07-31T03:34:20.046Z,100.00
2022-07-31T03:36:50.649Z,100.00
2022-07-31T03:39:22.062Z,100.00
2022-07-31T03:41:55.717Z,100.00
2022-07-31T03:44:27.986Z,100.00
2022-07-31T03:47:00.563Z,100.00
2022-07-31T03:49:36.804Z,100.00
2022-07-31T03:52:12.498Z,100.00
2022-07-31T03:54:46.592Z,100.00
2022-07-31T03:57:26.954Z,100.00
2022-07-31T04:00:16.641Z,100.00
2022-07-31T04:03:15.021Z,100.00
2022-07-31T04:06:07.657Z,100.00
2022-07-31T04:08:38.495Z,100.00
2022-07-31T04:11:14.214Z,100.00
2022-07-31T04:13:44.912Z,100.00
2022-07-31T04:16:19.477Z,100.00
2022-07-31T04:18:52.920Z,100.00
2022-07-31T04:21:28.928Z,100.00
2022-07-31T04:24:14.385Z,100.00
2022-07-31T04:27:21.491Z,100.00
2022-07-31T04:29:55.173Z,100.00
2022-07-31T04:32:26.314Z,100.00
2022-07-31T04:35:03.953Z,100.00
2022-07-31T04:37:48.043Z,100.00
2022-07-31T04:40:24.784Z,100.00
2022-07-31T04:43:13.224Z,100.00
2022-07-31T04:45:47.470Z,100.00
2022-07-31T04:48:33.123Z,100.00
2022-07-31T04:51:15.524Z,100.00
2022-07-31T04:53:46.356Z,100.00
2022-07-31T04:56:35.915Z,100.00
2022-07-31T04:59:09.203Z,100.00
2022-07-31T05:01:50.238Z,100.00
2022-07-31T05:04:28.585Z,100.00
2022-07-31T05:07:06.843Z,100.00
2022-07-31T05:09:37.385Z,100.00
2022-07-31T05:12:13.996Z,100.00
2022-07-31T05:14:45.995Z,100.00
2022-07-31T05:17:20.485Z,100.00
2022-07-31T05:20:11.494Z,100.00
2022-07-31T05:23:08.682Z,100.00
2022-07-31T05:25:54.018Z,100.00
2022-07-31T05:28:33.036Z,100.00
2022-07-31T05:31:05.936Z,100.00
2022-07-31T05:33:37.083Z,100.00
2022-07-31T05:36:17.935Z,100.00
2022-07-31T05:38:51.787Z,100.00
2022-07-31T05:41:44.159Z,100.00
2022-07-31T05:44:36.471Z,100.00
2022-07-31T05:47:15.269Z,100.00
2022-07-31T05:49:47.472Z,100.00
2022-07-31T05:55:47.880Z,100.00
2022-07-31T05:58:51.485Z,100.00
2022-07-31T06:01:25.011Z,100.00
2022-07-31T06:07:06.085Z,100.00
2022-07-31T06:09:40.101Z,100.00
2022-07-31T06:12:13.035Z,100.00
2022-07-31T06:14:45.518Z,100.00
2022-07-31T06:17:43.855Z,100.00
2022-07-31T06:20:43.004Z,100.00
2022-07-31T06:26:13.007Z,100.00
2022-07-31T06:28:48.791Z,100.00
2022-07-31T06:31:23.457Z,100.00
2022-07-31T06:33:59.433Z,100.00
2022-07-31T06:36:48.008Z,100.00
2022-07-31T06:39:21.868Z,100.00
2022-07-31T06:42:17.389Z,100.00
2022-07-31T06:45:25.217Z,100.00
2022-07-31T06:48:32.497Z,100.00
2022-07-31T06:51:31.701Z,100.00
2022-07-31T06:54:17.840Z,100.00
2022-07-31T06:56:49.542Z,100.00
2022-07-31T06:59:39.278Z,100.00
2022-07-31T07:02:13.800Z,100.00
2022-07-31T07:05:06.029Z,100.00
2022-07-31T07:07:44.269Z,100.00
2022-07-31T07:10:26.346Z,100.00
2022-07-31T07:13:46.158Z,100.00
2022-07-31T07:16:21.913Z,100.00
2022-07-31T07:18:56.533Z,100.00
2022-07-31T07:21:30.990Z,100.00
2022-07-31T07:24:09.072Z,100.00
2022-07-31T07:26:48.982Z,100.00
2022-07-31T07:29:21.838Z,100.00
2022-07-31T07:32:04.717Z,100.00
2022-07-31T07:34:38.325Z,100.00
2022-07-31T07:37:07.790Z,100.00
2022-07-31T07:39:41.799Z,100.00
2022-07-31T07:42:27.727Z,100.00
2022-07-31T07:45:02.230Z,100.00
2022-07-31T07:48:02.343Z,100.00
2022-07-31T07:50:36.161Z,100.00
2022-07-31T07:56:36.998Z,100.00
2022-07-31T07:59:45.921Z,100.00
2022-07-31T08:02:40.431Z,100.00
2022-07-31T08:05:24.040Z,100.00
2022-07-31T08:08:03.731Z,100.00
2022-07-31T08:11:07.199Z,100.00
2022-07-31T08:13:49.276Z,100.00
2022-07-31T08:16:33.222Z,100.00
2022-07-31T08:19:07.562Z,100.00
2022-07-31T08:21:44.062Z,100.00
2022-07-31T08:24:21.198Z,100.00
2022-07-31T08:27:11.299Z,100.00
2022-07-31T08:29:45.629Z,100.00
2022-07-31T08:32:24.412Z,100.00
2022-07-31T08:35:19.986Z,100.00
2022-07-31T08:38:03.714Z,100.00
2022-07-31T08:40:43.716Z,100.00
2022-07-31T08:44:01.440Z,100.00
2022-07-31T08:46:07.984Z,100.00
2022-07-31T08:48:51.715Z,100.00
2022-07-31T08:51:24.299Z,100.00
2022-07-31T08:54:12.491Z,100.00
2022-07-31T08:56:58.149Z,100.00
2022-07-31T08:59:29.303Z,100.00
2022-07-31T09:02:01.186Z,100.00
2022-07-31T09:04:37.799Z,100.00
2022-07-31T09:07:08.207Z,100.00
2022-07-31T09:09:52.160Z,100.00
2022-07-31T09:12:39.798Z,100.00
2022-07-31T09:15:36.617Z,100.00
2022-07-31T09:18:30.390Z,100.00
2022-07-31T09:21:16.313Z,100.00
2022-07-31T09:23:57.495Z,100.00
2022-07-31T09:26:37.860Z,100.00
2022-07-31T09:29:12.056Z,100.00
2022-07-31T09:31:44.360Z,100.00
2022-07-31T09:34:51.018Z,100.00
2022-07-31T09:37:24.128Z,100.00
2022-07-31T09:40:23.815Z,100.00
2022-07-31T09:43:51.506Z,97.59
2022-07-31T09:46:21.819Z,89.54
2022-07-31T09:48:59.827Z,96.13
2022-07-31T09:51:54.735Z,96.76
2022-07-31T09:54:32.229Z,100.00
2022-07-31T09:57:15.904Z,100.00
2022-07-31T10:00:00.610Z,83.44
2022-07-31T10:02:33.328Z,70.36
2022-07-31T10:05:07.172Z,81.75
2022-07-31T10:07:51.347Z,74.22
2022-07-31T10:10:32.841Z,78.26
2022-07-31T10:13:22.762Z,67.60
2022-07-31T10:16:00.451Z,62.66
2022-07-31T10:19:00.264Z,64.52
2022-07-31T10:22:06.669Z,56.83
2022-07-31T10:24:49.861Z,58.89
2022-07-31T10:27:26.315Z,54.20
2022-07-31T10:30:02.456Z,51.67
2022-07-31T10:32:38.892Z,50.36
2022-07-31T10:35:32.559Z,48.74
2022-07-31T10:39:17.548Z,51.10
2022-07-31T10:42:50.471Z,45.27
2022-07-31T10:45:27.450Z,53.87
2022-07-31T10:48:24.063Z,55.65
2022-07-31T10:51:19.167Z,49.63
2022-07-31T10:54:26.440Z,56.67
2022-07-31T10:57:56.147Z,48.17
2022-07-31T11:00:46.568Z,42.28
2022-07-31T11:03:44.852Z,46.21
2022-07-31T11:06:50.190Z,48.05
2022-07-31T11:09:45.416Z,41.71
2022-07-31T11:13:15.007Z,44.53
2022-07-31T11:16:16.071Z,44.24
2022-07-31T11:19:25.593Z,44.74
2022-07-31T11:22:30.451Z,46.22
2022-07-31T11:24:59.818Z,43.95
2022-07-31T11:27:33.414Z,44.78
2022-07-31T11:30:13.608Z,44.88
2022-07-31T11:32:58.031Z,44.00
2022-07-31T11:35:35.572Z,43.06
2022-07-31T11:38:09.505Z,44.48
2022-07-31T11:40:44.775Z,44.26
2022-07-31T11:43:31.532Z,45.44
2022-07-31T11:46:05.324Z,47.22
2022-07-31T11:48:44.929Z,43.74
2022-07-31T11:51:26.773Z,46.47
2022-07-31T11:53:58.686Z,50.03
2022-07-31T11:56:37.281Z,45.41
2022-07-31T11:59:06.084Z,44.11
2022-07-31T12:01:41.002Z,48.16
2022-07-31T12:04:31.267Z,53.63
2022-07-31T12:07:05.293Z,47.34
2022-07-31T12:10:00.770Z,47.84
2022-07-31T12:12:40.167Z,47.32
2022-07-31T12:15:26.470Z,49.71
2022-07-31T12:18:10.636Z,50.07
2022-07-31T12:20:42.076Z,50.39
2022-07-31T12:23:40.784Z,51.20
2022-07-31T12:26:14.185Z,51.98
2022-07-31T12:28:48.070Z,52.98
2022-07-31T12:31:35.826Z,55.81
2022-07-31T12:34:08.780Z,52.16
2022-07-31T12:36:45.863Z,55.80
2022-07-31T12:39:14.410Z,65.29
2022-07-31T12:41:45.458Z,52.08
2022-07-31T12:44:22.183Z,44.03
2022-07-31T12:46:56.265Z,42.39
2022-07-31T12:49:40.952Z,45.43
2022-07-31T12:52:14.385Z,41.86
2022-07-31T12:54:49.549Z,37.59
2022-07-31T12:57:26.129Z,39.96
2022-07-31T13:00:09.999Z,38.97
2022-07-31T13:02:42.857Z,36.91
2022-07-31T13:05:14.505Z,37.62
2022-07-31T13:07:46.246Z,36.17
2022-07-31T13:10:34.821Z,39.63
2022-07-31T13:13:08.521Z,36.83
2022-07-31T13:15:44.323Z,37.14
2022-07-31T13:18:18.346Z,37.52
2022-07-31T13:20:49.039Z,37.39
2022-07-31T13:23:21.926Z,37.07
2022-07-31T13:25:55.397Z,37.28
2022-07-31T13:28:32.080Z,38.04
2022-07-31T13:31:06.123Z,36.62
2022-07-31T13:33:36.999Z,41.47
2022-07-31T13:36:13.250Z,38.09
2022-07-31T13:38:45.557Z,40.99
2022-07-31T13:41:30.929Z,39.44
2022-07-31T13:44:06.153Z,39.12
2022-07-31T13:46:37.452Z,38.75
2022-07-31T13:49:12.517Z,39.12
2022-07-31T13:51:56.753Z,40.02
2022-07-31T13:54:31.609Z,39.71
2022-07-31T13:57:03.361Z,42.33
2022-07-31T13:59:37.044Z,43.07
2022-07-31T14:02:08.337Z,43.22
2022-07-31T14:04:46.585Z,42.30
2022-07-31T14:07:23.009Z,42.18
2022-07-31T14:10:26.162Z,47.89
2022-07-31T14:12:57.285Z,55.78
2022-07-31T14:15:35.754Z,74.07
2022-07-31T14:18:21.059Z,93.53
2022-07-31T14:21:01.580Z,86.72
2022-07-31T14:23:38.815Z,96.61
2022-07-31T14:26:18.842Z,88.02
2022-07-31T14:28:53.046Z,91.91
2022-07-31T14:31:23.497Z,94.73
2022-07-31T14:33:54.209Z,100.00
2022-07-31T14:36:28.821Z,100.00
2022-07-31T14:39:04.620Z,100.00
2022-07-31T14:41:48.549Z,100.00
2022-07-31T14:44:21.451Z,100.00
2022-07-31T14:47:04.611Z,100.00
2022-07-31T14:50:07.922Z,100.00
2022-07-31T14:52:42.930Z,100.00
2022-07-31T14:55:12.582Z,100.00
2022-07-31T14:57:41.269Z,100.00
2022-07-31T15:00:16.592Z,100.00
2022-07-31T15:02:53.308Z,100.00
2022-07-31T15:06:37.510Z,100.00
2022-07-31T15:08:16.154Z,100.00
2022-07-31T15:10:52.595Z,100.00
2022-07-31T15:13:22.660Z,100.00
2022-07-31T15:15:55.723Z,100.00
2022-07-31T15:18:27.097Z,100.00
2022-07-31T15:21:08.519Z,91.46
2022-07-31T15:23:53.004Z,87.21
2022-07-31T15:26:33.003Z,86.11
2022-07-31T15:29:04.441Z,56.53
2022-07-31T15:31:38.535Z,51.17
2022-07-31T15:34:10.613Z,56.91
2022-07-31T15:36:44.681Z,80.16
2022-07-31T15:39:18.124Z,77.86
2022-07-31T15:41:53.707Z,56.31
2022-07-31T15:44:25.425Z,52.47
2022-07-31T15:46:56.364Z,100.00
2022-07-31T15:49:24.252Z,91.08
2022-07-31T15:52:18.548Z,58.62
2022-07-31T15:54:52.196Z,50.50
2022-07-31T15:57:32.206Z,51.80
2022-07-31T16:00:02.797Z,48.35
2022-07-31T16:02:47.718Z,57.72
2022-07-31T16:05:37.100Z,64.65
2022-07-31T16:08:29.262Z,66.86
2022-07-31T16:11:07.074Z,73.10
2022-07-31T16:13:38.597Z,56.81
2022-07-31T16:16:11.884Z,59.88
2022-07-31T16:18:42.773Z,58.96
2022-07-31T16:21:12.298Z,56.18
2022-07-31T16:23:46.204Z,50.72
2022-07-31T16:26:20.374Z,48.25
2022-07-31T16:28:54.730Z,45.33
2022-07-31T16:31:41.631Z,47.07
2022-07-31T16:34:18.118Z,47.43
2022-07-31T16:36:48.882Z,51.84
2022-07-31T16:39:24.815Z,56.67
2022-07-31T16:42:04.876Z,50.64
2022-07-31T16:44:38.730Z,54.69
2022-07-31T16:47:15.829Z,67.74
2022-07-31T16:49:53.627Z,92.31
2022-07-31T16:52:24.179Z,88.21
2022-07-31T16:55:00.690Z,97.72
2022-07-31T16:57:33.121Z,93.72
2022-07-31T17:00:09.733Z,99.61
2022-07-31T17:02:44.330Z,100.00
2022-07-31T17:05:25.099Z,100.00
2022-07-31T17:07:57.009Z,100.00
2022-07-31T17:10:30.792Z,100.00
2022-07-31T17:13:08.575Z,97.48
2022-07-31T17:15:44.767Z,81.64
2022-07-31T17:18:30.807Z,82.11
2022-07-31T17:21:07.464Z,78.63
2022-07-31T17:23:44.494Z,88.82
2022-07-31T17:26:37.240Z,91.28
2022-07-31T17:29:15.966Z,96.61
2022-07-31T17:31:52.529Z,100.00
2022-07-31T17:34:23.214Z,100.00
2022-07-31T17:36:54.197Z,100.00
2022-07-31T17:39:30.631Z,100.00
2022-07-31T17:42:09.816Z,100.00
2022-07-31T17:44:49.815Z,100.00
2022-07-31T17:47:38.827Z,100.00
2022-07-31T17:50:09.857Z,100.00
2022-07-31T17:52:46.793Z,100.00
2022-07-31T17:58:05.515Z,100.00
2022-07-31T18:00:37.282Z,100.00
2022-07-31T18:03:10.544Z,100.00
2022-07-31T18:05:43.256Z,100.00
2022-07-31T18:08:23.176Z,100.00
2022-07-31T18:10:55.946Z,100.00
2022-07-31T18:13:48.687Z,100.00
2022-07-31T18:16:33.124Z,100.00
2022-07-31T18:19:16.574Z,100.00
2022-07-31T18:21:53.218Z,100.00
2022-07-31T18:24:24.734Z,100.00
2022-07-31T18:27:07.656Z,100.00
2022-07-31T18:29:37.778Z,100.00
2022-07-31T18:32:17.726Z,100.00
2022-07-31T18:34:50.487Z,100.00
2022-07-31T18:37:24.828Z,100.00
2022-07-31T18:40:03.321Z,100.00
2022-07-31T18:42:44.335Z,100.00
2022-07-31T18:45:26.098Z,100.00
2022-07-31T18:48:00.569Z,100.00
2022-07-31T18:50:59.455Z,100.00
2022-07-31T18:53:34.767Z,100.00
2022-07-31T18:56:10.276Z,100.00
2022-07-31T18:58:43.263Z,100.00
2022-07-31T19:01:15.436Z,100.00
2022-07-31T19:03:51.962Z,100.00
2022-07-31T19:06:23.748Z,100.00
2022-07-31T19:09:04.720Z,100.00
2022-07-31T19:11:41.287Z,100.00
2022-07-31T19:14:31.554Z,100.00
2022-07-31T19:17:18.469Z,100.00
2022-07-31T19:20:02.071Z,100.00
2022-07-31T19:22:45.244Z,100.00
2022-07-31T19:25:20.264Z,100.00
2022-07-31T19:27:59.567Z,100.00
2022-07-31T19:30:35.764Z,100.00
2022-07-31T19:33:07.843Z,100.00
2022-07-31T19:35:58.584Z,100.00
2022-07-31T19:38:37.097Z,100.00
2022-07-31T19:41:13.627Z,100.00
2022-07-31T19:43:46.858Z,100.00
2022-07-31T19:46:39.845Z,100.00
2022-07-31T19:49:11.760Z,100.00
2022-07-31T19:51:45.584Z,100.00
2022-07-31T19:54:16.443Z,100.00
2022-07-31T19:56:52.820Z,100.00
2022-07-31T19:59:36.732Z,100.00
2022-07-31T20:02:15.177Z,100.00
2022-07-31T20:04:51.503Z,100.00
2022-07-31T20:07:33.328Z,100.00
2022-07-31T20:10:09.780Z,100.00
2022-07-31T20:12:49.652Z,100.00
2022-07-31T20:15:22.298Z,100.00
2022-07-31T20:18:07.659Z,100.00
2022-07-31T20:20:41.642Z,100.00
2022-07-31T20:23:15.334Z,100.00
2022-07-31T20:25:50.443Z,100.00
2022-07-31T20:28:22.092Z,100.00
2022-07-31T20:30:59.146Z,100.00
2022-07-31T20:33:28.397Z,100.00
2022-07-31T20:36:07.329Z,100.00
2022-07-31T20:38:37.555Z,100.00
2022-07-31T20:41:14.680Z,100.00
2022-07-31T20:43:48.310Z,100.00
2022-07-31T20:46:19.417Z,100.00
2022-07-31T20:48:52.247Z,100.00
2022-07-31T20:51:24.559Z,100.00
2022-07-31T20:54:03.070Z,100.00
2022-07-31T20:56:44.775Z,100.00
2022-07-31T20:59:15.981Z,100.00
2022-07-31T21:01:51.934Z,100.00
2022-07-31T21:04:42.068Z,100.00
2022-07-31T21:07:17.816Z,100.00
2022-07-31T21:09:48.736Z,100.00
2022-07-31T21:12:32.485Z,100.00
2022-07-31T21:15:18.752Z,100.00
2022-07-31T21:18:07.984Z,100.00
2022-07-31T21:20:51.228Z,100.00
2022-07-31T21:23:24.251Z,100.00
2022-07-31T21:26:02.172Z,100.00
2022-07-31T21:28:43.307Z,100.00
2022-07-31T21:31:23.432Z,100.00
2022-07-31T21:33:55.989Z,100.00
2022-07-31T21:36:29.530Z,100.00
2022-07-31T21:38:59.854Z,100.00
2022-07-31T21:41:30.648Z,100.00
2022-07-31T21:44:04.629Z,100.00
2022-07-31T21:46:51.809Z,100.00
2022-07-31T21:49:28.628Z,100.00
2022-07-31T21:51:59.144Z,100.00
2022-07-31T21:54:27.707Z,100.00
2022-07-31T21:56:55.937Z,100.00
2022-07-31T21:59:24.616Z,100.00
2022-07-31T22:02:01.961Z,100.00
2022-07-31T22:04:37.270Z,100.00
2022-07-31T22:07:25.359Z,100.00
2022-07-31T22:10:00.475Z,100.00
2022-07-31T22:12:38.215Z,100.00
2022-07-31T22:15:11.296Z,100.00
2022-07-31T22:18:18.038Z,100.00
2022-07-31T22:20:57.735Z,100.00
2022-07-31T22:23:31.490Z,100.00
2022-07-31T22:26:06.086Z,100.00
2022-07-31T22:28:41.323Z,100.00
2022-07-31T22:31:17.856Z,100.00
2022-07-31T22:33:47.408Z,100.00
2022-07-31T22:36:18.686Z,100.00
2022-07-31T22:38:56.113Z,100.00
2022-07-31T22:41:37.595Z,100.00
2022-07-31T22:44:13.358Z,100.00
2022-07-31T22:46:45.558Z,100.00
2022-07-31T22:49:16.582Z,100.00
2022-07-31T22:51:50.118Z,100.00
2022-07-31T22:54:23.706Z,100.00
2022-07-31T22:56:55.323Z,100.00
2022-07-31T22:59:27.273Z,100.00
2022-07-31T23:01:57.841Z,100.00
2022-07-31T23:04:36.615Z,100.00
2022-07-31T23:07:11.365Z,100.00
2022-07-31T23:09:49.069Z,100.00
2022-07-31T23:12:20.834Z,100.00
2022-07-31T23:14:54.838Z,100.00
2022-07-31T23:17:25.960Z,100.00
2022-07-31T23:19:57.503Z,100.00
2022-07-31T23:22:30.607Z,100.00
2022-07-31T23:25:20.230Z,100.00
2022-07-31T23:27:52.452Z,100.00
2022-07-31T23:30:24.355Z,100.00
2022-07-31T23:32:56.001Z,100.00
2022-07-31T23:35:33.270Z,100.00
2022-07-31T23:38:19.844Z,100.00
2022-07-31T23:40:58.534Z,100.00
2022-07-31T23:43:26.945Z,100.00
2022-07-31T23:46:04.839Z,100.00
2022-07-31T23:48:40.841Z,100.00
2022-07-31T23:51:18.189Z,100.00
2022-07-31T23:53:59.108Z,100.00
2022-07-31T23:56:35.520Z,100.00
2022-07-31T23:59:09.416Z,100.00
